Time;durP1;ratioP1;P1;durP2;ratioP2;P2;SDS_P1;SDS_P2;PMS_P1;PMS_P2;Temp;Humidity;BMP_temperature;BMP_pressure;BME280_temperature;BME280_humidity;BME280_pressure;Samples;Min_cycle;Max_cycle;Signal;HPM_P1;HPM_P2
2021/11/11 00:02:21;;;;;;;29.47;26.27;;;;;;;;;;5061896;28;24729;-62
2021/11/11 00:04:46;;;;;;;28.90;25.80;;;;;;;;;;5059554;28;24514;-62
2021/11/11 00:07:11;;;;;;;31.97;26.97;;;;;;;;;;5056926;28;24418;-64
2021/11/11 00:09:37;;;;;;;30.40;27.10;;;;;;;;;;5057455;28;24760;-62
2021/11/11 00:12:02;;;;;;;29.93;26.80;;;;;;;;;;5057965;28;24456;-62
2021/11/11 00:14:27;;;;;;;30.80;27.05;;;;;;;;;;5061356;28;24530;-62
2021/11/11 00:16:53;;;;;;;29.37;26.17;;;;;;;;;;5061194;28;24415;-61
2021/11/11 00:19:18;;;;;;;31.00;27.40;;;;;;;;;;5062037;28;24438;-62
2021/11/11 00:21:43;;;;;;;32.28;27.67;;;;;;;;;;5060280;28;24419;-62
2021/11/11 00:24:08;;;;;;;31.30;27.33;;;;;;;;;;5056305;28;24517;-62
2021/11/11 00:26:34;;;;;;;30.77;27.17;;;;;;;;;;5062425;28;24407;-62
2021/11/11 00:28:59;;;;;;;32.50;28.10;;;;;;;;;;5059890;28;24430;-62
2021/11/11 00:31:24;;;;;;;29.83;25.93;;;;;;;;;;5058707;28;24407;-62
2021/11/11 00:33:50;;;;;;;32.73;28.30;;;;;;;;;;5058425;28;24459;-62
2021/11/11 00:36:15;;;;;;;31.73;28.33;;;;;;;;;;5056339;28;24430;-61
2021/11/11 00:38:41;;;;;;;29.77;26.57;;;;;;;;;;5060417;28;24514;-62
2021/11/11 00:41:07;;;;;;;31.98;27.95;;;;;;;;;;5060379;28;24411;-62
2021/11/11 00:43:33;;;;;;;31.83;26.95;;;;;;;;;;5062148;28;24403;-62
2021/11/11 00:45:58;;;;;;;34.00;28.50;;;;;;;;;;5057992;28;24414;-62
2021/11/11 00:48:23;;;;;;;30.73;26.40;;;;;;;;;;5056357;28;24938;-62
2021/11/11 00:50:48;;;;;;;34.13;28.90;;;;;;;;;;5057455;28;24418;-61
2021/11/11 00:53:14;;;;;;;31.98;26.98;;;;;;;;;;5061964;28;24471;-65
2021/11/11 00:55:39;;;;;;;32.40;27.87;;;;;;;;;;5061209;28;24431;-61
2021/11/11 00:58:04;;;;;;;32.83;28.40;;;;;;;;;;5059811;28;24453;-61
2021/11/11 01:00:30;;;;;;;30.03;26.80;;;;;;;;;;5056366;28;24415;-61
2021/11/11 01:02:56;;;;;;;33.28;27.40;;;;;;;;;;5058183;28;24422;-61
2021/11/11 01:05:21;;;;;;;31.60;26.70;;;;;;;;;;5059487;28;24502;-61
2021/11/11 01:07:47;;;;;;;30.88;26.75;;;;;;;;;;5060064;28;24525;-61
2021/11/11 01:10:13;;;;;;;31.90;26.80;;;;;;;;;;5062005;28;24422;-61
2021/11/11 01:12:39;;;;;;;31.35;27.95;;;;;;;;;;5058002;28;24445;-61
2021/11/11 01:15:06;;;;;;;31.07;27.67;;;;;;;;;;5055498;28;24527;-61
2021/11/11 01:17:31;;;;;;;31.00;27.00;;;;;;;;;;5058840;28;24586;-61
2021/11/11 01:19:57;;;;;;;31.37;27.50;;;;;;;;;;5061685;28;24573;-61
2021/11/11 01:22:22;;;;;;;31.70;27.58;;;;;;;;;;5062637;28;25294;-61
2021/11/11 01:24:47;;;;;;;34.10;29.70;;;;;;;;;;5065290;28;24425;-62
2021/11/11 01:27:12;;;;;;;31.97;28.03;;;;;;;;;;5060134;28;24421;-62
2021/11/11 01:29:38;;;;;;;30.60;27.30;;;;;;;;;;5061716;28;24406;-62
2021/11/11 01:32:03;;;;;;;31.17;27.88;;;;;;;;;;5065741;28;25308;-62
2021/11/11 01:34:28;;;;;;;30.73;27.40;;;;;;;;;;5065518;28;24439;-62
2021/11/11 01:36:54;;;;;;;30.90;27.60;;;;;;;;;;5063701;28;25220;-62
2021/11/11 01:39:19;;;;;;;30.75;27.40;;;;;;;;;;5063409;28;25044;-62
2021/11/11 01:41:45;;;;;;;31.92;28.52;;;;;;;;;;5061622;28;24450;-62
2021/11/11 01:44:12;;;;;;;32.75;28.15;;;;;;;;;;5061157;28;24429;-62
2021/11/11 01:46:37;;;;;;;32.20;27.45;;;;;;;;;;5065228;28;24415;-61
2021/11/11 01:49:02;;;;;;;33.70;29.90;;;;;;;;;;5063424;28;24410;-62
2021/11/11 01:51:30;;;;;;;34.60;29.30;;;;;;;;;;5064863;28;24422;-62
2021/11/11 01:53:55;;;;;;;31.20;27.90;;;;;;;;;;5062750;28;24437;-61
2021/11/11 01:56:22;;;;;;;33.57;28.57;;;;;;;;;;5060773;28;24509;-62
2021/11/11 01:58:47;;;;;;;31.85;28.20;;;;;;;;;;5063267;28;24538;-61
2021/11/11 02:01:12;;;;;;;32.83;28.57;;;;;;;;;;5061923;28;25019;-61
2021/11/11 02:03:38;;;;;;;32.80;28.13;;;;;;;;;;5064803;28;24800;-62
2021/11/11 02:06:03;;;;;;;32.40;28.27;;;;;;;;;;5062809;28;24429;-62
2021/11/11 02:08:28;;;;;;;33.77;28.97;;;;;;;;;;5063412;28;24421;-61
2021/11/11 02:10:53;;;;;;;34.63;29.40;;;;;;;;;;5058823;28;25024;-61
2021/11/11 02:13:18;;;;;;;33.70;28.60;;;;;;;;;;5064195;28;25094;-62
2021/11/11 02:15:44;;;;;;;33.33;28.43;;;;;;;;;;5065001;28;24419;-61
2021/11/11 02:18:09;;;;;;;33.13;28.50;;;;;;;;;;5062485;28;24461;-62
2021/11/11 02:20:36;;;;;;;32.97;28.47;;;;;;;;;;5063040;28;24445;-62
2021/11/11 02:23:02;;;;;;;32.95;27.48;;;;;;;;;;5060760;28;24426;-62
2021/11/11 02:25:28;;;;;;;32.22;28.30;;;;;;;;;;5059644;28;24460;-61
2021/11/11 02:27:55;;;;;;;34.45;27.65;;;;;;;;;;5062467;28;24447;-61
2021/11/11 02:30:22;;;;;;;33.33;29.13;;;;;;;;;;5064026;28;24422;-61
2021/11/11 02:32:48;;;;;;;32.28;27.40;;;;;;;;;;5063220;28;24819;-62
2021/11/11 02:35:15;;;;;;;32.70;27.37;;;;;;;;;;5059200;28;24465;-62
2021/11/11 02:37:40;;;;;;;32.35;27.60;;;;;;;;;;5060111;28;24407;-62
2021/11/11 02:40:16;;;;;;;32.43;27.33;;;;;;;;;;5058947;28;24414;-62
2021/11/11 02:42:42;;;;;;;31.35;27.60;;;;;;;;;;5063696;28;24418;-61
2021/11/11 02:45:08;;;;;;;34.70;28.85;;;;;;;;;;5062454;28;24422;-62
2021/11/11 02:47:34;;;;;;;32.03;28.52;;;;;;;;;;5058767;28;24410;-61
2021/11/11 02:49:59;;;;;;;35.78;29.25;;;;;;;;;;5058681;28;24421;-62
2021/11/11 02:52:25;;;;;;;34.10;30.30;;;;;;;;;;5061759;28;25025;-61
2021/11/11 02:54:51;;;;;;;32.30;28.20;;;;;;;;;;5063235;28;24434;-61
2021/11/11 02:57:26;;;;;;;35.40;29.80;;;;;;;;;;5064423;28;24411;-61
2021/11/11 02:59:56;;;;;;;34.22;29.92;;;;;;;;;;5060715;28;24456;-62
2021/11/11 03:02:22;;;;;;;34.95;31.10;;;;;;;;;;5057493;28;24501;-62
2021/11/11 03:04:48;;;;;;;35.10;30.35;;;;;;;;;;5060745;28;25354;-62
2021/11/11 03:07:14;;;;;;;36.40;30.70;;;;;;;;;;5061808;28;24508;-62
2021/11/11 03:09:40;;;;;;;35.05;29.95;;;;;;;;;;5059248;28;24971;-62
2021/11/11 03:12:07;;;;;;;35.50;30.75;;;;;;;;;;5064651;28;24426;-62
2021/11/11 03:14:32;;;;;;;36.67;30.02;;;;;;;;;;5064206;28;24415;-62
2021/11/11 03:16:57;;;;;;;35.97;30.33;;;;;;;;;;5060008;28;24425;-62
2021/11/11 03:19:22;;;;;;;35.87;31.10;;;;;;;;;;5057798;28;24411;-62
2021/11/11 03:21:48;;;;;;;36.67;30.37;;;;;;;;;;5057522;28;24421;-62
2021/11/11 03:24:13;;;;;;;37.85;31.20;;;;;;;;;;5059338;28;24445;-61
2021/11/11 03:26:39;;;;;;;36.83;31.57;;;;;;;;;;5063532;28;24472;-61
2021/11/11 03:29:04;;;;;;;36.10;31.60;;;;;;;;;;5062054;28;24968;-61
2021/11/11 03:31:29;;;;;;;37.35;31.60;;;;;;;;;;5057953;28;24429;-61
2021/11/11 03:33:56;;;;;;;37.47;32.05;;;;;;;;;;5059325;28;24471;-60
2021/11/11 03:36:21;;;;;;;39.42;31.30;;;;;;;;;;5063377;28;24583;-60
2021/11/11 03:38:46;;;;;;;37.13;31.83;;;;;;;;;;5063881;28;25083;-61
2021/11/11 03:41:11;;;;;;;39.17;32.42;;;;;;;;;;5058549;28;24418;-61
2021/11/11 03:43:36;;;;;;;38.63;32.20;;;;;;;;;;5057237;28;24570;-61
2021/11/11 03:46:01;;;;;;;40.10;33.30;;;;;;;;;;5061211;28;24796;-61
2021/11/11 03:48:27;;;;;;;41.00;33.73;;;;;;;;;;5061730;28;25209;-61
2021/11/11 03:50:52;;;;;;;38.65;32.80;;;;;;;;;;5060364;28;24488;-61
2021/11/11 03:53:17;;;;;;;45.13;34.63;;;;;;;;;;5058569;28;24801;-60
2021/11/11 03:55:42;;;;;;;42.67;33.80;;;;;;;;;;5058288;28;24433;-61
2021/11/11 03:58:11;;;;;;;40.20;34.70;;;;;;;;;;5061149;28;24452;-62
2021/11/11 04:00:37;;;;;;;38.88;32.45;;;;;;;;;;5062734;28;24808;-62
2021/11/11 04:03:02;;;;;;;41.53;33.87;;;;;;;;;;5060771;28;24463;-62
2021/11/11 04:05:27;;;;;;;42.92;34.17;;;;;;;;;;5063033;28;24529;-62
2021/11/11 04:07:52;;;;;;;42.53;34.55;;;;;;;;;;5057415;28;24403;-62
2021/11/11 04:10:17;;;;;;;43.90;34.97;;;;;;;;;;5062791;28;24454;-61
2021/11/11 04:12:42;;;;;;;39.53;34.20;;;;;;;;;;5044017;28;24427;-61
2021/11/11 04:15:08;;;;;;;40.57;34.70;;;;;;;;;;5058722;28;24938;-61
2021/11/11 04:17:33;;;;;;;39.95;32.97;;;;;;;;;;5056693;28;24479;-61
2021/11/11 04:19:58;;;;;;;44.53;34.60;;;;;;;;;;5058627;28;24526;-61
2021/11/11 04:22:24;;;;;;;42.75;35.15;;;;;;;;;;5061532;28;24475;-62
2021/11/11 04:24:50;;;;;;;42.50;36.27;;;;;;;;;;5061885;28;24454;-62
2021/11/11 04:29:45;;;;;;;42.37;34.30;;;;;;;;;;5055264;28;24436;-63
2021/11/11 04:32:13;;;;;;;42.25;33.85;;;;;;;;;;5057242;28;24438;-63
2021/11/11 04:34:40;;;;;;;41.67;32.92;;;;;;;;;;5057648;28;24829;-63
2021/11/11 04:40:12;;;;;;;42.08;35.70;;;;;;;;;;5060428;28;24851;-62
2021/11/11 04:43:02;;;;;;;47.33;38.65;;;;;;;;;;5058254;28;24511;-62
2021/11/11 04:45:50;;;;;;;46.45;37.35;;;;;;;;;;5054360;28;24468;-62
2021/11/11 05:04:23;;;;;;;53.15;42.55;;;;;;;;;;5042680;28;24722;-62
2021/11/11 05:06:49;;;;;;;54.20;43.20;;;;;;;;;;5059847;28;24434;-61
2021/11/11 05:09:14;;;;;;;50.83;38.13;;;;;;;;;;5057100;28;24534;-62
2021/11/11 05:11:39;;;;;;;53.53;43.27;;;;;;;;;;5056801;28;24974;-62
2021/11/11 05:14:04;;;;;;;46.33;38.07;;;;;;;;;;5055957;28;24433;-62
2021/11/11 05:16:30;;;;;;;48.63;39.60;;;;;;;;;;5061096;28;25044;-62
2021/11/11 05:18:55;;;;;;;50.73;41.37;;;;;;;;;;5061162;28;25024;-62
2021/11/11 05:21:20;;;;;;;48.92;38.45;;;;;;;;;;5058550;28;24429;-62
2021/11/11 05:23:45;;;;;;;52.13;41.43;;;;;;;;;;5052189;28;24429;-63
2021/11/11 05:26:11;;;;;;;43.07;35.60;;;;;;;;;;5057990;28;24472;-62
2021/11/11 05:28:36;;;;;;;45.80;37.38;;;;;;;;;;5056911;28;24445;-62
2021/11/11 05:31:02;;;;;;;49.53;38.97;;;;;;;;;;5052551;28;24419;-62
2021/11/11 05:33:27;;;;;;;46.60;35.20;;;;;;;;;;5048168;28;25000;-63
2021/11/11 05:35:52;;;;;;;47.00;35.53;;;;;;;;;;5047838;28;24972;-62
2021/11/11 05:38:17;;;;;;;47.00;36.20;;;;;;;;;;5058865;28;24555;-62
2021/11/11 05:40:43;;;;;;;47.00;38.60;;;;;;;;;;5061655;28;24429;-62
2021/11/11 05:43:08;;;;;;;43.93;35.57;;;;;;;;;;5046905;28;24703;-62
2021/11/11 05:45:33;;;;;;;43.37;34.73;;;;;;;;;;5053522;28;25155;-62
2021/11/11 05:47:58;;;;;;;45.57;36.67;;;;;;;;;;5050516;28;24431;-62
2021/11/11 05:50:24;;;;;;;48.87;40.00;;;;;;;;;;5051415;28;24979;-62
2021/11/11 05:52:49;;;;;;;41.07;34.30;;;;;;;;;;5056259;28;24415;-62
2021/11/11 05:55:14;;;;;;;49.40;37.67;;;;;;;;;;5053482;28;24564;-62
2021/11/11 05:57:39;;;;;;;46.70;36.87;;;;;;;;;;5046809;28;24979;-62
2021/11/11 06:00:06;;;;;;;48.93;38.30;;;;;;;;;;5051559;28;24417;-62
2021/11/11 06:02:31;;;;;;;55.03;40.78;;;;;;;;;;5056332;28;24510;-62
2021/11/11 06:04:56;;;;;;;52.55;37.95;;;;;;;;;;5051360;28;24514;-62
2021/11/11 06:07:21;;;;;;;49.22;38.90;;;;;;;;;;5048697;28;25268;-62
2021/11/11 06:09:46;;;;;;;54.65;43.60;;;;;;;;;;5054588;28;24429;-63
2021/11/11 06:12:12;;;;;;;46.00;37.03;;;;;;;;;;5055415;28;24966;-62
2021/11/11 06:14:37;;;;;;;51.50;38.30;;;;;;;;;;5057323;28;24956;-62
2021/11/11 06:17:06;;;;;;;45.13;35.97;;;;;;;;;;5057822;28;24494;-61
2021/11/11 06:19:32;;;;;;;43.50;34.90;;;;;;;;;;5056833;28;24518;-62
2021/11/11 06:21:58;;;;;;;48.45;39.58;;;;;;;;;;5058456;28;24427;-62
2021/11/11 06:24:23;;;;;;;52.60;41.43;;;;;;;;;;5061629;28;24476;-62
2021/11/11 06:26:48;;;;;;;51.45;41.05;;;;;;;;;;5059641;28;24998;-62
2021/11/11 06:29:13;;;;;;;56.20;42.57;;;;;;;;;;5064619;28;24952;-62
2021/11/11 06:31:38;;;;;;;52.70;41.55;;;;;;;;;;5063193;28;24430;-61
2021/11/11 06:34:03;;;;;;;55.87;39.37;;;;;;;;;;5058049;28;24422;-62
2021/11/11 06:36:29;;;;;;;52.30;39.40;;;;;;;;;;5057928;28;24464;-61
2021/11/11 06:38:54;;;;;;;49.20;38.33;;;;;;;;;;5058120;28;24402;-62
2021/11/11 06:41:19;;;;;;;50.65;39.80;;;;;;;;;;5063835;28;24481;-61
2021/11/11 06:43:44;;;;;;;53.27;40.23;;;;;;;;;;5063306;28;24438;-61
2021/11/11 06:46:10;;;;;;;53.47;40.13;;;;;;;;;;5062155;28;24496;-61
2021/11/11 06:48:36;;;;;;;47.78;37.28;;;;;;;;;;5062081;28;24514;-62
2021/11/11 06:51:01;;;;;;;46.83;37.03;;;;;;;;;;5058151;28;24413;-61
2021/11/11 06:53:27;;;;;;;46.67;37.67;;;;;;;;;;5053064;28;25058;-63
2021/11/11 06:55:52;;;;;;;47.80;35.60;;;;;;;;;;5062914;28;24719;-62
2021/11/11 06:58:21;;;;;;;46.23;34.57;;;;;;;;;;5056350;28;25009;-61
2021/11/11 07:00:47;;;;;;;46.78;37.40;;;;;;;;;;5046826;28;24433;-61
2021/11/11 07:03:12;;;;;;;42.20;33.40;;;;;;;;;;5050720;28;24422;-62
2021/11/11 07:05:38;;;;;;;39.70;32.97;;;;;;;;;;5059768;28;24418;-61
2021/11/11 07:08:08;;;;;;;42.87;33.53;;;;;;;;;;5056214;28;24513;-63
2021/11/11 07:10:33;;;;;;;36.67;31.30;;;;;;;;;;5057537;28;24446;-63
2021/11/11 07:12:59;;;;;;;40.47;32.90;;;;;;;;;;5051660;28;24454;-64
2021/11/11 07:15:24;;;;;;;41.95;34.40;;;;;;;;;;5048696;28;24980;-62
2021/11/11 07:17:49;;;;;;;44.93;34.10;;;;;;;;;;5060777;28;24509;-62
2021/11/11 07:20:15;;;;;;;41.45;33.53;;;;;;;;;;5047053;28;24594;-62
2021/11/11 07:22:43;;;;;;;42.90;34.00;;;;;;;;;;5057228;28;24510;-62
2021/11/11 07:25:09;;;;;;;44.55;35.83;;;;;;;;;;5063724;28;24417;-62
2021/11/11 07:27:35;;;;;;;35.40;30.85;;;;;;;;;;5062890;28;24411;-62
2021/11/11 07:30:02;;;;;;;39.35;31.60;;;;;;;;;;5054849;28;24972;-62
2021/11/11 07:32:27;;;;;;;40.55;32.47;;;;;;;;;;5045173;28;25007;-63
2021/11/11 07:34:52;;;;;;;42.95;33.90;;;;;;;;;;5057516;28;24437;-62
2021/11/11 07:37:18;;;;;;;42.75;32.70;;;;;;;;;;5044374;28;24519;-62
2021/11/11 07:39:43;;;;;;;43.43;32.80;;;;;;;;;;5050904;28;24421;-62
2021/11/11 07:42:09;;;;;;;44.23;35.57;;;;;;;;;;5064063;28;24433;-62
2021/11/11 07:44:34;;;;;;;41.13;33.13;;;;;;;;;;5060794;28;24419;-62
2021/11/11 07:47:00;;;;;;;40.53;31.98;;;;;;;;;;5056899;28;24467;-61
2021/11/11 07:49:25;;;;;;;39.80;32.27;;;;;;;;;;5050238;28;24964;-62
2021/11/11 07:51:50;;;;;;;42.93;32.80;;;;;;;;;;5056495;28;24532;-62
2021/11/11 07:54:15;;;;;;;43.83;32.73;;;;;;;;;;5061039;28;24471;-62
2021/11/11 07:56:42;;;;;;;36.20;29.02;;;;;;;;;;5062750;28;24414;-62
2021/11/11 07:59:07;;;;;;;39.90;31.70;;;;;;;;;;5060868;28;24927;-61
2021/11/11 08:01:32;;;;;;;40.15;30.42;;;;;;;;;;5057223;28;24849;-61
2021/11/11 08:03:58;;;;;;;39.57;31.63;;;;;;;;;;5057533;28;24863;-61
2021/11/11 08:06:23;;;;;;;35.17;27.70;;;;;;;;;;5061069;28;24394;-61
2021/11/11 08:08:48;;;;;;;39.20;31.80;;;;;;;;;;5060216;28;25185;-62
2021/11/11 08:11:14;;;;;;;35.67;29.10;;;;;;;;;;5062441;28;24411;-62
2021/11/11 08:13:39;;;;;;;36.10;28.58;;;;;;;;;;5062106;28;24430;-61
2021/11/11 08:16:05;;;;;;;37.95;30.10;;;;;;;;;;5059258;28;24422;-61
2021/11/11 08:18:30;;;;;;;31.93;26.53;;;;;;;;;;5056936;28;24379;-62
2021/11/11 08:20:55;;;;;;;29.55;25.88;;;;;;;;;;5058901;28;24409;-62
2021/11/11 08:23:21;;;;;;;31.30;24.80;;;;;;;;;;5062322;28;24455;-61
2021/11/11 08:25:47;;;;;;;31.10;25.77;;;;;;;;;;5061658;28;24426;-61
2021/11/11 08:28:13;;;;;;;35.60;28.92;;;;;;;;;;5057786;28;24426;-62
2021/11/11 08:30:39;;;;;;;32.88;27.25;;;;;;;;;;5058078;28;24464;-61
2021/11/11 08:33:04;;;;;;;29.30;24.83;;;;;;;;;;5056704;28;24526;-61
2021/11/11 08:35:29;;;;;;;28.43;24.10;;;;;;;;;;5059858;28;24470;-61
2021/11/11 08:37:55;;;;;;;32.90;29.40;;;;;;;;;;5059189;28;24560;-61
2021/11/11 08:40:20;;;;;;;30.00;26.70;;;;;;;;;;5062205;28;24749;-62
2021/11/11 08:42:46;;;;;;;29.90;25.95;;;;;;;;;;5058676;28;24572;-61
2021/11/11 08:45:11;;;;;;;27.85;24.85;;;;;;;;;;5056840;28;24460;-61
2021/11/11 08:47:37;;;;;;;24.30;21.70;;;;;;;;;;5058103;28;24411;-61
2021/11/11 08:50:03;;;;;;;26.50;22.80;;;;;;;;;;5060330;28;24547;-61
2021/11/11 08:52:28;;;;;;;24.87;22.27;;;;;;;;;;5062130;28;24999;-61
2021/11/11 08:54:54;;;;;;;24.77;22.17;;;;;;;;;;5060065;28;24426;-61
2021/11/11 08:57:19;;;;;;;26.77;23.98;;;;;;;;;;5059045;28;24402;-61
2021/11/11 08:59:51;;;;;;;22.80;20.40;;;;;;;;;;5058063;28;24966;-61
2021/11/11 09:02:16;;;;;;;23.88;21.30;;;;;;;;;;5056316;28;25026;-61
2021/11/11 09:04:42;;;;;;;25.98;21.70;;;;;;;;;;5060785;28;24422;-62
2021/11/11 09:07:07;;;;;;;28.63;23.02;;;;;;;;;;5059978;28;24516;-62
2021/11/11 09:09:33;;;;;;;27.23;22.20;;;;;;;;;;5061495;28;24490;-62
2021/11/11 09:11:58;;;;;;;27.37;23.20;;;;;;;;;;5056493;28;24478;-62
2021/11/11 09:14:23;;;;;;;26.80;22.10;;;;;;;;;;5058519;28;24417;-61
2021/11/11 09:16:48;;;;;;;24.83;21.40;;;;;;;;;;5058094;28;24395;-62
2021/11/11 09:19:13;;;;;;;21.45;18.88;;;;;;;;;;5061649;28;24577;-61
2021/11/11 09:21:39;;;;;;;27.40;22.27;;;;;;;;;;5062581;28;24988;-61
2021/11/11 09:24:05;;;;;;;26.63;21.92;;;;;;;;;;5058079;28;24455;-61
2021/11/11 09:26:30;;;;;;;24.60;20.60;;;;;;;;;;5057871;28;24399;-62
2021/11/11 09:28:55;;;;;;;21.80;18.13;;;;;;;;;;5060067;28;24623;-62
2021/11/11 09:31:22;;;;;;;21.47;18.90;;;;;;;;;;5061776;28;24401;-62
2021/11/11 09:33:47;;;;;;;24.15;20.98;;;;;;;;;;5060018;28;24999;-62
2021/11/11 09:36:16;;;;;;;23.60;20.00;;;;;;;;;;5057651;28;24413;-62
2021/11/11 09:38:41;;;;;;;22.15;18.85;;;;;;;;;;5057658;28;24501;-62
2021/11/11 09:41:09;;;;;;;22.40;20.00;;;;;;;;;;5056180;28;24540;-62
2021/11/11 09:43:35;;;;;;;21.63;19.33;;;;;;;;;;5063157;28;24582;-62
2021/11/11 09:46:01;;;;;;;21.83;19.52;;;;;;;;;;5063881;28;24405;-62
2021/11/11 09:48:26;;;;;;;22.50;20.10;;;;;;;;;;5063467;28;24746;-62
2021/11/11 09:50:51;;;;;;;23.55;20.92;;;;;;;;;;5061829;28;25007;-63
2021/11/11 09:53:22;;;;;;;22.90;20.17;;;;;;;;;;5059458;28;24517;-63
2021/11/11 09:58:35;;;;;;;19.73;17.50;;;;;;;;;;5064993;28;24394;-63
2021/11/11 10:01:02;;;;;;;19.35;17.35;;;;;;;;;;5062932;28;24573;-60
2021/11/11 10:03:27;;;;;;;23.23;20.73;;;;;;;;;;5063089;28;24391;-61
2021/11/11 10:05:52;;;;;;;22.40;19.90;;;;;;;;;;5060881;28;24966;-60
2021/11/11 10:08:35;;;;;;;23.33;20.10;;;;;;;;;;5058534;28;24493;-61
2021/11/11 10:11:00;;;;;;;22.92;20.20;;;;;;;;;;5061939;28;24433;-61
2021/11/11 10:13:26;;;;;;;19.80;17.30;;;;;;;;;;5064489;28;24395;-61
2021/11/11 10:16:02;;;;;;;20.20;17.70;;;;;;;;;;5063023;28;25029;-61
2021/11/11 10:18:36;;;;;;;22.38;17.88;;;;;;;;;;5059387;28;24761;-61
2021/11/11 10:21:01;;;;;;;21.17;18.88;;;;;;;;;;5058834;28;24411;-61
2021/11/11 10:23:27;;;;;;;21.33;18.83;;;;;;;;;;5061163;28;24473;-63
2021/11/11 10:26:14;;;;;;;21.27;18.98;;;;;;;;;;5062665;28;25009;-61
2021/11/11 10:28:40;;;;;;;20.63;17.05;;;;;;;;;;5064536;28;24437;-61
2021/11/11 10:31:12;;;;;;;19.00;17.00;;;;;;;;;;5063264;28;25059;-62
2021/11/11 10:33:37;;;;;;;20.90;17.80;;;;;;;;;;5060237;28;24521;-62
2021/11/11 10:36:06;;;;;;;19.65;17.05;;;;;;;;;;5059319;28;24526;-61
2021/11/11 10:38:31;;;;;;;18.75;15.85;;;;;;;;;;5059729;28;24394;-63
2021/11/11 10:40:57;;;;;;;16.88;15.07;;;;;;;;;;5062375;28;25288;-63
2021/11/11 10:43:25;;;;;;;17.55;15.65;;;;;;;;;;5064681;28;25037;-62
2021/11/11 10:45:51;;;;;;;17.33;15.43;;;;;;;;;;5060635;28;24769;-63
2021/11/11 10:48:18;;;;;;;17.05;15.23;;;;;;;;;;5059389;28;24394;-61
2021/11/11 10:50:45;;;;;;;17.23;15.35;;;;;;;;;;5060869;28;24446;-62
2021/11/11 10:53:12;;;;;;;21.17;17.97;;;;;;;;;;5062417;28;24429;-62
2021/11/11 10:55:38;;;;;;;19.45;17.45;;;;;;;;;;5063321;28;24427;-62
2021/11/11 10:58:05;;;;;;;20.77;18.57;;;;;;;;;;5061995;28;24477;-62
2021/11/11 11:00:36;;;;;;;21.20;18.65;;;;;;;;;;5064308;28;24383;-62
2021/11/11 11:03:11;;;;;;;23.92;20.92;;;;;;;;;;5058320;28;24422;-62
2021/11/11 11:05:45;;;;;;;21.90;18.92;;;;;;;;;;5058474;28;24672;-62
2021/11/11 11:08:12;;;;;;;24.40;21.30;;;;;;;;;;5061815;28;24394;-62
2021/11/11 11:10:38;;;;;;;22.02;18.75;;;;;;;;;;5064529;28;24395;-62
2021/11/11 11:13:05;;;;;;;23.75;20.10;;;;;;;;;;5060868;28;24946;-62
2021/11/11 11:15:32;;;;;;;23.42;20.05;;;;;;;;;;5061830;28;25583;-64
2021/11/11 11:17:57;;;;;;;24.33;20.73;;;;;;;;;;5057933;28;24498;-63
2021/11/11 11:20:23;;;;;;;24.10;19.85;;;;;;;;;;5060638;28;24549;-62
2021/11/11 11:22:48;;;;;;;23.27;19.83;;;;;;;;;;5057682;28;24484;-62
2021/11/11 11:25:14;;;;;;;24.10;20.83;;;;;;;;;;5062104;28;24402;-62
2021/11/11 11:27:39;;;;;;;19.58;17.48;;;;;;;;;;5063915;28;25082;-61
2021/11/11 11:30:16;;;;;;;25.67;21.70;;;;;;;;;;5061238;28;24414;-62
2021/11/11 11:32:43;;;;;;;22.85;19.85;;;;;;;;;;5039750;28;24781;-61
2021/11/11 11:35:09;;;;;;;22.40;19.40;;;;;;;;;;5038014;28;25505;-62
2021/11/11 11:37:35;;;;;;;24.95;21.13;;;;;;;;;;5040080;28;24486;-61
2021/11/11 11:40:06;;;;;;;28.73;21.10;;;;;;;;;;5043287;28;24526;-61
2021/11/11 11:42:36;;;;;;;20.33;17.70;;;;;;;;;;5060424;28;24734;-61
2021/11/11 11:45:04;;;;;;;22.37;19.50;;;;;;;;;;5061039;28;24407;-62
2021/11/11 11:50:03;;;;;;;19.63;17.45;;;;;;;;;;5057671;28;24407;-62
2021/11/11 11:52:30;;;;;;;21.13;18.42;;;;;;;;;;5059647;28;24484;-62
2021/11/11 11:55:02;;;;;;;20.55;17.25;;;;;;;;;;5059425;28;24960;-61
2021/11/11 11:57:33;;;;;;;19.90;17.50;;;;;;;;;;5063354;28;24413;-62
2021/11/11 12:00:25;;;;;;;25.08;21.58;;;;;;;;;;5061266;28;24410;-62
2021/11/11 12:03:02;;;;;;;23.05;20.15;;;;;;;;;;5058982;28;24406;-61
2021/11/11 12:08:31;;;;;;;24.33;21.08;;;;;;;;;;5061138;28;25057;-61
2021/11/11 12:39:29;;;;;;;26.05;22.10;;;;;;;;;;5062689;28;24468;-62
2021/11/11 12:41:56;;;;;;;23.23;19.40;;;;;;;;;;5060508;28;24424;-62
2021/11/11 12:44:23;;;;;;;26.27;22.13;;;;;;;;;;5062021;28;24415;-62
2021/11/11 12:46:48;;;;;;;24.13;20.77;;;;;;;;;;5060826;28;24417;-62
2021/11/11 12:49:24;;;;;;;24.87;21.10;;;;;;;;;;5057041;28;24395;-62
2021/11/11 12:52:08;;;;;;;27.35;22.15;;;;;;;;;;5058667;28;24395;-62
2021/11/11 12:54:33;;;;;;;25.20;22.35;;;;;;;;;;5060155;28;24565;-63
2021/11/11 12:57:03;;;;;;;24.83;21.87;;;;;;;;;;5060696;28;24473;-62
2021/11/11 12:59:30;;;;;;;24.63;21.00;;;;;;;;;;5062422;28;24452;-63
2021/11/11 13:01:58;;;;;;;23.98;20.33;;;;;;;;;;5056968;28;24398;-63
2021/11/11 13:04:23;;;;;;;25.25;21.65;;;;;;;;;;5056722;28;24395;-61
2021/11/11 13:06:58;;;;;;;21.80;19.17;;;;;;;;;;5060358;28;24422;-62
2021/11/11 13:09:23;;;;;;;20.70;18.40;;;;;;;;;;5062231;28;24881;-61
2021/11/11 13:12:09;;;;;;;23.52;20.00;;;;;;;;;;5060177;28;24486;-62
2021/11/11 13:14:35;;;;;;;22.98;19.67;;;;;;;;;;5059614;28;24465;-62
2021/11/11 13:17:00;;;;;;;22.23;19.58;;;;;;;;;;5056361;28;25218;-62
2021/11/11 13:19:41;;;;;;;24.80;21.30;;;;;;;;;;5061098;28;24439;-62
2021/11/11 13:22:37;;;;;;;24.33;21.73;;;;;;;;;;5062111;28;24769;-62
2021/11/11 14:01:02;;;;;;;25.30;22.60;;;;;;;;;;5061837;28;24417;-61
2021/11/11 15:14:02;;;;;;;33.08;26.05;;;;;;;;;;5063368;28;24421;-63
2021/11/11 16:21:05;;;;;;;37.33;31.35;;;;;;;;;;5057070;28;25004;-62
2021/11/11 16:26:16;;;;;;;41.88;34.05;;;;;;;;;;5062026;28;24382;-62
2021/11/11 16:28:45;;;;;;;40.10;32.28;;;;;;;;;;5062277;28;24414;-62
2021/11/11 16:31:11;;;;;;;41.63;33.17;;;;;;;;;;5060247;28;24407;-62
2021/11/11 16:33:36;;;;;;;39.00;31.53;;;;;;;;;;5061956;28;24458;-62
2021/11/11 16:36:01;;;;;;;41.47;34.10;;;;;;;;;;5056446;28;24741;-62
2021/11/11 16:38:26;;;;;;;42.77;33.50;;;;;;;;;;5056719;28;24457;-62
2021/11/11 16:40:52;;;;;;;40.28;32.80;;;;;;;;;;5060384;28;24394;-62
2021/11/11 16:43:17;;;;;;;46.53;36.73;;;;;;;;;;5062147;28;24383;-62
2021/11/11 16:45:42;;;;;;;43.33;34.30;;;;;;;;;;5061983;28;25022;-62
2021/11/11 16:48:08;;;;;;;42.67;33.13;;;;;;;;;;5060231;28;24458;-62
2021/11/11 16:50:33;;;;;;;42.87;33.63;;;;;;;;;;5056537;28;24812;-62
2021/11/11 16:52:59;;;;;;;46.20;35.50;;;;;;;;;;5055722;28;25157;-62
2021/11/11 16:55:24;;;;;;;40.57;32.77;;;;;;;;;;5059805;28;25397;-62
2021/11/11 16:57:49;;;;;;;43.40;34.63;;;;;;;;;;5060046;28;25002;-63
2021/11/11 17:00:15;;;;;;;41.47;33.43;;;;;;;;;;5062092;28;24943;-62
2021/11/11 17:02:41;;;;;;;40.37;31.87;;;;;;;;;;5061954;28;24444;-62
2021/11/11 17:05:06;;;;;;;41.10;32.57;;;;;;;;;;5056354;28;24402;-62
2021/11/11 17:07:31;;;;;;;36.47;29.70;;;;;;;;;;5056506;28;24825;-62
2021/11/11 17:09:57;;;;;;;37.53;30.80;;;;;;;;;;5040574;28;24972;-62
2021/11/11 17:12:22;;;;;;;44.10;34.10;;;;;;;;;;5062102;28;24398;-61
2021/11/11 17:14:53;;;;;;;40.37;32.17;;;;;;;;;;5062001;28;24415;-63
2021/11/11 17:17:19;;;;;;;39.90;33.55;;;;;;;;;;5061498;28;24583;-61
2021/11/11 17:19:45;;;;;;;42.15;32.45;;;;;;;;;;5059890;28;24601;-62
2021/11/11 17:22:14;;;;;;;39.85;32.45;;;;;;;;;;5048922;28;24446;-62
2021/11/11 17:24:43;;;;;;;44.00;34.70;;;;;;;;;;5043077;28;25032;-61
2021/11/11 17:27:20;;;;;;;42.88;33.55;;;;;;;;;;5041102;28;24602;-62
2021/11/11 17:29:46;;;;;;;44.13;34.13;;;;;;;;;;5041560;28;24400;-62
2021/11/11 17:32:11;;;;;;;45.17;35.23;;;;;;;;;;5036896;28;24473;-62
2021/11/11 17:34:37;;;;;;;49.43;37.93;;;;;;;;;;5037459;28;24465;-62
2021/11/11 17:37:02;;;;;;;49.07;37.50;;;;;;;;;;5036225;28;24997;-62
2021/11/11 17:39:27;;;;;;;39.53;30.90;;;;;;;;;;5039567;28;24986;-62
2021/11/11 17:41:52;;;;;;;41.80;32.50;;;;;;;;;;5039441;28;25040;-62
2021/11/11 17:44:17;;;;;;;36.47;29.97;;;;;;;;;;5055833;28;25012;-62
2021/11/11 17:46:45;;;;;;;37.73;30.83;;;;;;;;;;5061052;28;24386;-63
2021/11/11 17:49:15;;;;;;;45.75;34.30;;;;;;;;;;5057126;28;25584;-62
2021/11/11 17:51:54;;;;;;;35.40;28.73;;;;;;;;;;5057930;28;24502;-63
2021/11/11 17:56:49;;;;;;;39.80;30.88;;;;;;;;;;5061352;28;24398;-62
2021/11/11 17:59:15;;;;;;;39.72;31.48;;;;;;;;;;5061364;28;24399;-62
2021/11/11 18:01:40;;;;;;;38.38;30.30;;;;;;;;;;5059935;28;24399;-61
2021/11/11 18:04:06;;;;;;;37.33;29.50;;;;;;;;;;5056066;28;24406;-62
2021/11/11 18:06:37;;;;;;;39.17;30.67;;;;;;;;;;5059397;28;24428;-61
2021/11/11 18:09:11;;;;;;;36.63;28.73;;;;;;;;;;5061433;28;24440;-62